Time;durP1;ratioP1;P1;durP2;ratioP2;P2;SDS_P1;SDS_P2;PMS_P1;PMS_P2;Temp;Humidity;BMP_temperature;BMP_pressure;BME280_temperature;BME280_humidity;BME280_pressure;Samples;Min_cycle;Max_cycle;Signal;HPM_P1;HPM_P2
2023/07/01 00:01:22;;;;;;;7.82;7.18;;;16.10;99.90;;;;;;5269506;28;20683;-69
2023/07/01 00:03:53;;;;;;;7.25;6.65;;;15.90;99.90;;;;;;5269379;28;20020;-69
2023/07/01 00:06:27;;;;;;;7.97;7.10;;;16.00;99.90;;;;;;5269408;28;20023;-68
2023/07/01 00:08:58;;;;;;;7.25;6.65;;;15.90;99.90;;;;;;5269076;28;20104;-68
2023/07/01 00:11:28;;;;;;;7.28;6.57;;;15.60;99.90;;;;;;5269253;28;20448;-68
2023/07/01 00:13:59;;;;;;;8.50;7.70;;;15.80;99.90;;;;;;5269031;28;20031;-69
2023/07/01 00:16:30;;;;;;;8.43;7.35;;;15.80;99.90;;;;;;5269258;28;20467;-68
2023/07/01 00:19:01;;;;;;;7.30;6.70;;;15.60;99.90;;;;;;5269072;28;20020;-69
2023/07/01 00:21:32;;;;;;;8.15;6.93;;;15.80;99.90;;;;;;5268963;28;20020;-69
2023/07/01 00:24:03;;;;;;;8.23;7.38;;;15.70;99.90;;;;;;5268968;28;20020;-68
2023/07/01 00:26:34;;;;;;;7.15;6.57;;;15.60;99.90;;;;;;5269033;28;20020;-68
2023/07/01 00:29:04;;;;;;;8.27;7.47;;;15.60;99.90;;;;;;5269097;28;20375;-69
2023/07/01 00:31:35;;;;;;;7.53;6.85;;;15.60;99.90;;;;;;5268912;28;20024;-68
2023/07/01 00:34:06;;;;;;;7.35;6.75;;;15.50;99.90;;;;;;5268741;28;20459;-69
2023/07/01 00:36:37;;;;;;;9.20;8.32;;;15.30;99.90;;;;;;5268859;28;20479;-68
2023/07/01 00:39:08;;;;;;;8.50;7.82;;;15.40;99.90;;;;;;5268536;28;20794;-68
2023/07/01 00:41:38;;;;;;;10.18;9.25;;;15.50;99.90;;;;;;5268640;28;20020;-69
2023/07/01 00:44:09;;;;;;;9.40;8.50;;;15.50;99.90;;;;;;5268486;28;20024;-67
2023/07/01 00:46:40;;;;;;;9.10;8.20;;;15.50;99.90;;;;;;5268495;28;20020;-69
2023/07/01 00:49:11;;;;;;;8.30;7.70;;;15.60;99.90;;;;;;5268491;28;20111;-68
2023/07/01 00:51:42;;;;;;;8.65;7.95;;;15.60;99.90;;;;;;5268535;28;20027;-68
2023/07/01 00:54:13;;;;;;;7.60;6.95;;;15.60;99.90;;;;;;5268466;28;20028;-69
2023/07/01 00:56:44;;;;;;;8.05;7.35;;;15.70;99.90;;;;;;5268199;28;20418;-69
2023/07/01 00:59:15;;;;;;;8.85;8.05;;;15.50;99.90;;;;;;5268446;28;20035;-68
2023/07/01 01:01:50;;;;;;;8.38;7.68;;;15.40;99.90;;;;;;5268246;28;20028;-68
2023/07/01 01:04:44;;;;;;;8.02;7.22;;;15.40;99.90;;;;;;5268203;28;20468;-68
2023/07/01 01:07:27;;;;;;;7.88;7.20;;;15.30;99.90;;;;;;5268236;28;20028;-69
2023/07/01 01:10:06;;;;;;;8.05;7.28;;;15.40;99.90;;;;;;5268115;28;20036;-69
2023/07/01 01:12:40;;;;;;;8.25;7.55;;;15.10;99.90;;;;;;5268078;28;20035;-68
2023/07/01 01:15:11;;;;;;;9.82;8.82;;;15.00;99.90;;;;;;5268009;28;20042;-69
2023/07/01 01:17:44;;;;;;;9.85;9.05;;;15.20;99.90;;;;;;5268115;28;20020;-69
2023/07/01 01:20:20;;;;;;;9.65;8.85;;;15.30;99.90;;;;;;5268068;28;20035;-68
2023/07/01 01:23:11;;;;;;;8.65;7.95;;;15.40;99.90;;;;;;5267991;28;20383;-68
2023/07/01 01:25:52;;;;;;;9.50;8.80;;;15.20;99.90;;;;;;5268036;28;20487;-68
2023/07/01 01:28:22;;;;;;;9.85;9.05;;;15.30;99.90;;;;;;5267802;28;20028;-69
2023/07/01 01:30:53;;;;;;;10.68;9.85;;;15.10;99.90;;;;;;5267890;28;20027;-68
2023/07/01 01:33:25;;;;;;;9.43;8.60;;;15.20;99.90;;;;;;5267803;28;20027;-69
2023/07/01 01:36:09;;;;;;;9.20;8.50;;;15.20;99.90;;;;;;5267953;28;20101;-69
2023/07/01 01:38:43;;;;;;;10.52;9.13;;;15.30;99.90;;;;;;5267636;28;20507;-68
2023/07/01 01:41:27;;;;;;;9.55;8.57;;;15.00;99.90;;;;;;5268148;28;20027;-69
2023/07/01 01:44:25;;;;;;;9.60;8.82;;;15.00;99.90;;;;;;5267822;28;20055;-69
2023/07/01 01:46:57;;;;;;;9.27;8.52;;;15.30;99.90;;;;;;5267851;28;20161;-68
2023/07/01 01:49:28;;;;;;;9.77;8.82;;;15.00;99.90;;;;;;5267850;28;20036;-69
2023/07/01 01:52:00;;;;;;;9.70;8.82;;;15.10;99.90;;;;;;5267725;28;20028;-69
2023/07/01 01:54:31;;;;;;;10.00;9.20;;;15.10;99.90;;;;;;5267782;28;20059;-68
2023/07/01 01:57:02;;;;;;;9.77;8.77;;;15.00;99.90;;;;;;5267972;28;20111;-68
2023/07/01 01:59:33;;;;;;;8.63;7.82;;;14.90;99.90;;;;;;5268023;28;20428;-69
2023/07/01 02:02:04;;;;;;;10.63;9.80;;;14.80;99.90;;;;;;5267727;28;20032;-69
2023/07/01 02:04:35;;;;;;;10.52;9.63;;;14.80;99.90;;;;;;5267609;28;20472;-69
2023/07/01 02:07:06;;;;;;;9.30;8.57;;;15.00;99.90;;;;;;5267654;28;20160;-68
2023/07/01 02:09:37;;;;;;;8.23;7.53;;;14.90;99.90;;;;;;5267542;28;20036;-69
2023/07/01 02:12:08;;;;;;;9.02;7.80;;;15.00;99.90;;;;;;5267709;28;20038;-69
2023/07/01 02:14:39;;;;;;;9.82;8.85;;;15.00;99.90;;;;;;5268690;28;20024;-68
2023/07/01 02:17:09;;;;;;;9.02;8.23;;;14.90;99.90;;;;;;5271494;28;20360;-69
2023/07/01 02:19:40;;;;;;;9.27;8.48;;;14.90;99.90;;;;;;5271472;28;20035;-69
2023/07/01 02:22:11;;;;;;;9.48;8.57;;;14.80;99.90;;;;;;5271512;28;20153;-69
2023/07/01 02:24:42;;;;;;;10.13;9.27;;;14.90;99.90;;;;;;5271318;28;20032;-69
2023/07/01 02:27:13;;;;;;;9.55;8.85;;;15.00;99.90;;;;;;5271108;28;20030;-68
2023/07/01 02:29:44;;;;;;;9.82;7.38;;;15.00;99.90;;;;;;5271035;28;20368;-69
2023/07/01 02:32:15;;;;;;;9.75;8.77;;;15.00;99.90;;;;;;5271276;28;20028;-69
2023/07/01 02:34:46;;;;;;;9.27;8.48;;;14.90;99.90;;;;;;5271177;28;20375;-69
2023/07/01 02:37:16;;;;;;;9.98;8.95;;;14.80;99.90;;;;;;5270988;28;20357;-69
2023/07/01 02:39:47;;;;;;;10.70;9.80;;;14.90;99.90;;;;;;5270946;28;20517;-69
2023/07/01 02:42:21;;;;;;;10.63;9.63;;;14.90;99.90;;;;;;5270959;28;20023;-68
2023/07/01 02:44:52;;;;;;;9.13;8.32;;;15.00;99.90;;;;;;5270997;28;20044;-68
2023/07/01 02:47:23;;;;;;;8.45;7.55;;;15.00;99.90;;;;;;5270778;28;20028;-68
2023/07/01 02:49:54;;;;;;;10.30;9.38;;;15.00;99.90;;;;;;5270852;28;20153;-68
2023/07/01 02:52:24;;;;;;;9.45;8.55;;;14.80;99.90;;;;;;5270688;28;20093;-69
2023/07/01 02:54:55;;;;;;;9.52;8.80;;;14.70;99.90;;;;;;5270871;28;20050;-68
2023/07/01 02:57:26;;;;;;;10.88;10.00;;;14.70;99.90;;;;;;5270587;28;20031;-67
2023/07/01 02:59:58;;;;;;;8.95;8.15;;;14.90;99.90;;;;;;5270575;28;20024;-68
2023/07/01 03:02:29;;;;;;;8.32;7.63;;;14.90;99.90;;;;;;5270499;28;20032;-68
2023/07/01 03:05:00;;;;;;;8.52;7.68;;;14.90;99.90;;;;;;5270549;28;20073;-69
2023/07/01 03:07:31;;;;;;;8.77;7.95;;;14.90;99.90;;;;;;5270411;28;20035;-68
2023/07/01 03:10:02;;;;;;;8.75;8.00;;;14.70;99.90;;;;;;5270372;28;20564;-69
2023/07/01 03:12:33;;;;;;;8.65;6.82;;;14.90;99.90;;;;;;5270271;28;20115;-68
2023/07/01 03:15:04;;;;;;;7.53;6.78;;;14.80;99.90;;;;;;5270262;28;20570;-68
2023/07/01 03:17:35;;;;;;;9.00;8.23;;;15.00;99.90;;;;;;5270128;28;20390;-69
2023/07/01 03:20:06;;;;;;;8.05;7.35;;;14.90;99.90;;;;;;5270300;28;20024;-69
2023/07/01 03:22:37;;;;;;;7.53;6.82;;;14.90;99.90;;;;;;5270080;28;20032;-69
2023/07/01 03:25:10;;;;;;;8.20;7.57;;;15.10;99.90;;;;;;5269885;28;20136;-68
2023/07/01 03:27:41;;;;;;;7.90;7.05;;;15.10;99.90;;;;;;5270057;28;20024;-68
2023/07/01 03:30:14;;;;;;;7.60;6.85;;;15.10;99.90;;;;;;5269853;28;20040;-67
2023/07/01 03:32:47;;;;;;;11.75;7.25;;;15.30;99.90;;;;;;5269982;28;20032;-68
2023/07/01 03:35:18;;;;;;;9.15;7.90;;;15.30;99.90;;;;;;5268703;28;20494;-68
2023/07/01 03:37:48;;;;;;;9.43;7.93;;;15.40;99.90;;;;;;5269642;28;20056;-68
2023/07/01 03:40:19;;;;;;;11.07;9.40;;;15.20;99.90;;;;;;5269726;28;20514;-69
2023/07/01 03:42:50;;;;;;;9.50;8.60;;;15.30;99.90;;;;;;5269731;28;20016;-68
2023/07/01 03:45:21;;;;;;;9.23;7.65;;;15.40;99.90;;;;;;5269796;28;20036;-69
2023/07/01 03:47:52;;;;;;;9.32;8.52;;;15.60;99.90;;;;;;5269716;28;20071;-69
2023/07/01 03:50:22;;;;;;;10.80;9.80;;;15.80;99.90;;;;;;5269504;28;20062;-69
2023/07/01 03:52:53;;;;;;;10.23;9.23;;;15.80;99.90;;;;;;5269482;28;20468;-69
2023/07/01 03:55:25;;;;;;;10.55;9.63;;;16.00;99.90;;;;;;5269562;28;20024;-69
2023/07/01 03:57:56;;;;;;;8.85;8.05;;;15.80;99.90;;;;;;5269587;28;20383;-68
2023/07/01 04:00:27;;;;;;;11.20;9.10;;;16.00;99.90;;;;;;5269417;28;20017;-69
2023/07/01 04:03:05;;;;;;;9.27;8.48;;;16.00;99.90;;;;;;5269444;28;20093;-68
2023/07/01 04:05:36;;;;;;;10.52;9.60;;;16.20;99.90;;;;;;5269904;28;20020;-69
2023/07/01 04:08:07;;;;;;;15.32;8.35;;;16.40;99.90;;;;;;5269380;28;20043;-69
2023/07/01 04:10:37;;;;;;;10.70;9.60;;;16.40;99.90;;;;;;5269331;28;20065;-67
2023/07/01 04:13:08;;;;;;;9.23;8.30;;;16.30;99.90;;;;;;5269181;28;20036;-69
2023/07/01 04:15:39;;;;;;;9.90;8.95;;;16.40;99.90;;;;;;5269287;28;20027;-67
2023/07/01 04:18:10;;;;;;;11.13;10.13;;;16.80;99.90;;;;;;5269112;28;20794;-69
2023/07/01 04:20:41;;;;;;;10.85;9.93;;;16.90;99.90;;;;;;5267820;28;20467;-68
2023/07/01 04:23:12;;;;;;;11.63;10.63;;;16.90;99.90;;;;;;5268904;28;20084;-68
2023/07/01 04:25:43;;;;;;;11.85;10.75;;;16.90;99.90;;;;;;5269063;28;20368;-69
2023/07/01 04:28:13;;;;;;;13.13;11.82;;;17.20;99.90;;;;;;5268703;28;20035;-69
2023/07/01 04:30:44;;;;;;;11.65;10.55;;;17.10;99.90;;;;;;5268846;28;20383;-69
2023/07/01 04:33:15;;;;;;;11.52;10.60;;;17.30;99.90;;;;;;5268743;28;20024;-68
2023/07/01 04:35:46;;;;;;;13.43;12.23;;;17.40;99.90;;;;;;5268893;28;20024;-68
2023/07/01 04:38:17;;;;;;;12.00;10.88;;;17.40;99.90;;;;;;5267918;28;20092;-68
2023/07/01 04:40:48;;;;;;;12.68;11.57;;;17.60;99.90;;;;;;5268837;28;20028;-69
2023/07/01 04:43:18;;;;;;;13.43;12.35;;;17.60;99.90;;;;;;5268594;28;20076;-69
2023/07/01 04:45:49;;;;;;;12.82;11.80;;;17.90;99.90;;;;;;5268715;28;20357;-69
2023/07/01 04:48:20;;;;;;;11.70;10.70;;;18.00;99.90;;;;;;5268492;28;20116;-68
2023/07/01 04:50:51;;;;;;;12.70;10.80;;;18.20;99.90;;;;;;5268471;28;20031;-69
2023/07/01 04:53:22;;;;;;;12.20;11.10;;;18.20;99.90;;;;;;5268374;28;20480;-68
2023/07/01 04:55:53;;;;;;;11.88;10.98;;;18.50;99.90;;;;;;5268461;28;20111;-69
2023/07/01 04:58:23;;;;;;;12.10;11.10;;;18.50;99.90;;;;;;5268390;28;20028;-68
2023/07/01 05:00:55;;;;;;;11.02;10.15;;;18.70;99.90;;;;;;5268280;28;20110;-69
2023/07/01 05:03:26;;;;;;;11.18;10.15;;;18.80;99.90;;;;;;5268200;28;20135;-69
2023/07/01 05:05:57;;;;;;;11.00;10.18;;;19.00;99.90;;;;;;5268284;28;20111;-68
2023/07/01 05:08:27;;;;;;;11.25;10.23;;;19.00;99.90;;;;;;5268112;28;20487;-69
2023/07/01 05:10:58;;;;;;;10.50;9.50;;;19.20;99.90;;;;;;5268152;28;20056;-69
2023/07/01 05:13:29;;;;;;;10.65;9.65;;;19.40;99.90;;;;;;5268181;28;20034;-70
2023/07/01 05:16:00;;;;;;;11.15;9.93;;;19.60;99.90;;;;;;5268457;28;20379;-68
2023/07/01 05:18:31;;;;;;;12.02;11.02;;;19.80;99.90;;;;;;5268286;28;20027;-69
2023/07/01 05:21:02;;;;;;;13.25;12.05;;;20.00;99.90;;;;;;5268210;28;20051;-69
2023/07/01 05:23:32;;;;;;;13.93;12.80;;;20.20;99.90;;;;;;5268258;28;20020;-69
2023/07/01 05:26:03;;;;;;;13.93;12.63;;;20.30;99.90;;;;;;5268092;28;20032;-69
2023/07/01 05:28:34;;;;;;;13.70;12.50;;;20.50;99.90;;;;;;5267942;28;20395;-69
2023/07/01 05:31:05;;;;;;;12.30;11.40;;;20.70;99.90;;;;;;5267945;28;20039;-69
2023/07/01 05:33:36;;;;;;;11.13;10.23;;;20.80;99.90;;;;;;5268056;28;20039;-69
2023/07/01 05:36:07;;;;;;;11.40;10.60;;;20.90;99.90;;;;;;5268032;28;20028;-69
2023/07/01 05:38:40;;;;;;;10.98;9.88;;;21.00;99.90;;;;;;5266411;28;20487;-68
2023/07/01 05:41:10;;;;;;;10.85;9.77;;;21.20;99.90;;;;;;5267888;28;20020;-69
2023/07/01 05:43:41;;;;;;;11.50;10.60;;;21.40;99.90;;;;;;5267928;28;20028;-69
2023/07/01 05:46:12;;;;;;;10.98;10.07;;;21.60;99.90;;;;;;5267830;28;20129;-70
2023/07/01 05:48:43;;;;;;;10.23;9.32;;;21.80;99.90;;;;;;5267646;28;20047;-69
2023/07/01 05:51:14;;;;;;;9.77;8.77;;;22.00;99.90;;;;;;5271432;28;20099;-70
2023/07/01 05:53:48;;;;;;;9.18;8.38;;;22.10;99.90;;;;;;5271835;28;20032;-68
2023/07/01 05:56:19;;;;;;;11.25;8.93;;;22.20;99.90;;;;;;5271914;28;20475;-69
2023/07/01 05:58:50;;;;;;;9.02;8.13;;;22.40;99.90;;;;;;5271757;28;20032;-69
2023/07/01 06:01:21;;;;;;;7.20;6.60;;;22.50;99.90;;;;;;5270730;28;20016;-68
2023/07/01 06:03:52;;;;;;;8.13;7.22;;;22.60;99.90;;;;;;5271690;28;20113;-69
2023/07/01 06:06:23;;;;;;;7.82;7.15;;;22.80;99.90;;;;;;5271616;28;20490;-69
2023/07/01 06:08:54;;;;;;;7.45;6.85;;;23.00;99.90;;;;;;5271505;28;20055;-69
2023/07/01 06:11:25;;;;;;;8.07;7.30;;;23.00;99.90;;;;;;5271535;28;20505;-68
2023/07/01 06:13:55;;;;;;;8.90;7.22;;;23.10;99.90;;;;;;5271451;28;20028;-69
2023/07/01 06:16:26;;;;;;;8.80;8.00;;;23.20;99.90;;;;;;5271697;28;20344;-69
2023/07/01 06:18:57;;;;;;;8.27;7.15;;;23.30;99.90;;;;;;5271377;28;20020;-69
2023/07/01 06:21:28;;;;;;;8.73;7.82;;;23.40;99.90;;;;;;5271364;28;20016;-69
2023/07/01 06:23:59;;;;;;;7.28;6.68;;;23.50;99.90;;;;;;5271403;28;20456;-69
2023/07/01 06:26:29;;;;;;;7.00;6.38;;;23.80;99.90;;;;;;5271356;28;20036;-69
2023/07/01 06:29:00;;;;;;;7.78;7.18;;;23.70;99.90;;;;;;5271172;28;20442;-69
2023/07/01 06:31:31;;;;;;;8.40;6.30;;;24.00;99.90;;;;;;5271180;28;20099;-69
2023/07/01 06:34:11;;;;;;;7.05;6.45;;;24.10;99.90;;;;;;5271245;28;20239;-70
2023/07/01 06:36:42;;;;;;;7.20;6.60;;;24.20;99.90;;;;;;5271525;28;20552;-69
2023/07/01 06:39:13;;;;;;;7.75;7.05;;;24.30;99.90;;;;;;5271137;28;20072;-69
2023/07/01 06:41:44;;;;;;;8.05;7.25;;;24.50;99.90;;;;;;5271156;28;20031;-70
2023/07/01 06:44:15;;;;;;;7.50;6.82;;;24.50;99.90;;;;;;5269823;28;20028;-69
2023/07/01 06:46:46;;;;;;;8.07;7.30;;;24.60;99.90;;;;;;5271197;28;20150;-70
2023/07/01 06:49:16;;;;;;;7.32;6.72;;;24.60;99.90;;;;;;5270972;28;20123;-69
2023/07/01 06:51:47;;;;;;;6.40;5.80;;;24.80;99.90;;;;;;5270785;28;20036;-69
2023/07/01 06:54:19;;;;;;;6.93;6.32;;;24.90;99.90;;;;;;5270824;28;20172;-69
2023/07/01 06:56:50;;;;;;;7.22;5.95;;;24.90;99.90;;;;;;5270773;28;20039;-69
2023/07/01 06:59:21;;;;;;;6.50;6.00;;;24.90;99.90;;;;;;5270665;28;20028;-69
2023/07/01 07:01:51;;;;;;;6.15;5.55;;;25.10;99.90;;;;;;5270096;28;20027;-69
2023/07/01 07:04:22;;;;;;;8.07;5.78;;;25.20;99.90;;;;;;5270634;28;20406;-69
2023/07/01 07:06:53;;;;;;;6.70;6.03;;;25.30;99.90;;;;;;5270500;28;20184;-69
2023/07/01 07:09:24;;;;;;;6.78;5.88;;;25.40;99.90;;;;;;5270283;28;20055;-68
2023/07/01 07:11:55;;;;;;;5.97;5.47;;;25.30;99.90;;;;;;5270393;28;20035;-69
2023/07/01 07:14:25;;;;;;;6.13;5.40;;;25.30;99.90;;;;;;5270363;28;20024;-69
2023/07/01 07:16:56;;;;;;;6.03;5.35;;;25.30;99.90;;;;;;5270262;28;20120;-70
2023/07/01 07:19:27;;;;;;;6.32;5.57;;;25.50;99.90;;;;;;5270249;28;20054;-69
2023/07/01 07:21:58;;;;;;;5.35;4.85;;;25.70;99.90;;;;;;5270398;28;20535;-69
2023/07/01 07:24:29;;;;;;;6.55;5.03;;;25.90;99.90;;;;;;5270193;28;20371;-70
2023/07/01 07:27:03;;;;;;;5.82;5.32;;;26.00;99.90;;;;;;5270032;28;20511;-69
2023/07/01 07:29:34;;;;;;;6.68;5.10;;;26.20;99.90;;;;;;5270049;28;20032;-69
2023/07/01 07:32:05;;;;;;;5.50;4.53;;;26.20;99.90;;;;;;5269979;28;20020;-69
2023/07/01 07:34:38;;;;;;;6.47;5.88;;;26.20;99.90;;;;;;5269941;28;20024;-69
2023/07/01 07:37:09;;;;;;;6.22;5.28;;;26.20;99.90;;;;;;5269883;28;20020;-69
2023/07/01 07:39:40;;;;;;;6.20;5.60;;;26.50;99.90;;;;;;5269669;28;20087;-70
2023/07/01 07:42:10;;;;;;;6.40;6.00;;;26.30;99.90;;;;;;5269776;28;20020;-69
2023/07/01 07:44:42;;;;;;;6.43;5.75;;;26.30;99.90;;;;;;5269903;28;20035;-68
2023/07/01 07:47:13;;;;;;;5.72;5.22;;;26.40;99.90;;;;;;5269771;28;20367;-69
2023/07/01 07:49:44;;;;;;;5.93;5.53;;;26.50;99.90;;;;;;5269797;28;20516;-69
2023/07/01 07:52:15;;;;;;;7.25;6.57;;;26.60;99.90;;;;;;5270001;28;20114;-69
2023/07/01 07:54:46;;;;;;;6.82;6.03;;;26.80;99.90;;;;;;5269643;28;20368;-69
2023/07/01 07:57:17;;;;;;;5.70;5.18;;;26.80;99.90;;;;;;5269643;28;20114;-69
2023/07/01 07:59:48;;;;;;;6.47;5.97;;;27.00;99.90;;;;;;5269344;28;20020;-70
2023/07/01 08:02:19;;;;;;;6.40;5.90;;;27.10;99.90;;;;;;5269481;28;20031;-70
2023/07/01 08:04:50;;;;;;;6.88;6.25;;;27.10;99.90;;;;;;5269473;28;20020;-70
2023/07/01 08:07:21;;;;;;;6.60;6.05;;;27.10;99.90;;;;;;5269306;28;20056;-70
2023/07/01 08:09:52;;;;;;;6.65;6.05;;;27.20;99.90;;;;;;5269130;28;20028;-70
2023/07/01 08:12:23;;;;;;;7.13;6.53;;;27.30;99.90;;;;;;5268322;28;20019;-70
2023/07/01 08:14:53;;;;;;;9.75;8.07;;;27.00;99.90;;;;;;5269087;28;20032;-70
2023/07/01 08:17:24;;;;;;;7.80;7.25;;;27.20;99.90;;;;;;5269086;28;20026;-70
2023/07/01 08:19:55;;;;;;;7.55;6.85;;;27.40;99.90;;;;;;5268934;28;20415;-70
2023/07/01 08:22:26;;;;;;;8.40;7.80;;;27.40;99.90;;;;;;5269088;28;20024;-70
2023/07/01 08:24:58;;;;;;;11.02;10.27;;;27.40;99.90;;;;;;5268896;28;20024;-70
2023/07/01 08:27:29;;;;;;;7.30;6.72;;;27.40;99.90;;;;;;5267499;28;20043;-70
2023/07/01 08:30:00;;;;;;;7.18;6.63;;;27.50;99.90;;;;;;5268568;28;20036;-70
2023/07/01 08:32:32;;;;;;;7.10;6.43;;;27.60;99.90;;;;;;5268872;28;20463;-70
2023/07/01 08:35:03;;;;;;;11.02;10.18;;;27.80;99.90;;;;;;5268757;28;20056;-70
2023/07/01 08:37:34;;;;;;;13.93;13.10;;;27.80;99.90;;;;;;5268531;28;20077;-70
2023/07/01 08:40:07;;;;;;;14.80;13.45;;;27.80;99.90;;;;;;5268679;28;20032;-70
2023/07/01 08:42:43;;;;;;;13.05;12.27;;;27.90;99.90;;;;;;5268634;28;20024;-70
2023/07/01 08:45:14;;;;;;;11.45;10.63;;;27.80;99.90;;;;;;5268452;28;20020;-70
2023/07/01 08:47:46;;;;;;;22.70;8.30;;;28.20;99.90;;;;;;5268377;28;20031;-70
2023/07/01 08:50:19;;;;;;;7.70;7.10;;;28.20;99.90;;;;;;5268472;28;20035;-70
2023/07/01 08:53:02;;;;;;;6.53;5.90;;;28.30;99.90;;;;;;5268665;28;20031;-70
2023/07/01 08:55:34;;;;;;;6.20;5.63;;;28.40;99.90;;;;;;5251300;28;20020;-70
2023/07/01 08:58:05;;;;;;;6.75;6.15;;;28.40;99.90;;;;;;5268254;28;20038;-71
2023/07/01 09:00:36;;;;;;;5.88;5.47;;;28.50;99.90;;;;;;5268290;28;20036;-70
2023/07/01 09:03:07;;;;;;;5.10;4.70;;;28.50;99.90;;;;;;5268305;28;20028;-70
2023/07/01 09:05:38;;;;;;;7.55;4.57;;;28.40;99.90;;;;;;5268430;28;20020;-70
2023/07/01 09:08:09;;;;;;;5.88;4.55;;;28.40;99.90;;;;;;5268289;28;20051;-71
2023/07/01 09:10:40;;;;;;;5.70;5.20;;;28.50;99.90;;;;;;5268229;28;20040;-70
2023/07/01 09:13:14;;;;;;;6.40;5.00;;;28.70;99.90;;;;;;5266821;28;20077;-70
2023/07/01 09:15:49;;;;;;;8.95;4.80;;;28.90;99.90;;;;;;5268288;28;20437;-70
2023/07/01 09:18:20;;;;;;;5.93;5.50;;;28.80;99.90;;;;;;5268240;28;20886;-70
2023/07/01 09:20:52;;;;;;;5.40;5.07;;;28.90;99.90;;;;;;5268126;28;20069;-70
2023/07/01 09:23:28;;;;;;;6.03;5.20;;;28.90;99.90;;;;;;5267961;28;20028;-70
2023/07/01 09:26:19;;;;;;;5.82;5.38;;;28.90;99.70;;;;;;5268195;28;20430;-70
2023/07/01 09:28:51;;;;;;;5.63;5.18;;;28.80;99.90;;;;;;5267881;28;20124;-70
2023/07/01 09:31:21;;;;;;;5.47;5.03;;;28.80;99.90;;;;;;5267933;28;20028;-70
2023/07/01 09:34:00;;;;;;;6.18;5.45;;;28.80;99.90;;;;;;5266713;28;20081;-70
2023/07/01 09:36:32;;;;;;;5.40;5.00;;;28.90;99.90;;;;;;5268044;28;20024;-70
2023/07/01 09:39:05;;;;;;;6.07;5.57;;;28.80;99.90;;;;;;5266290;28;20121;-70
2023/07/01 09:41:35;;;;;;;6.13;5.57;;;28.90;99.90;;;;;;5266456;28;20078;-70
2023/07/01 09:44:18;;;;;;;6.32;5.85;;;29.30;99.90;;;;;;5267789;28;20021;-70
2023/07/01 09:46:50;;;;;;;6.70;6.30;;;29.30;99.90;;;;;;5266633;28;20039;-70
2023/07/01 10:02:02;;;;;;;5.22;4.78;;;29.20;99.90;;;;;;5328897;27;20457;-69
2023/07/01 10:04:34;;;;;;;4.75;4.28;;;29.50;99.40;;;;;;5328846;27;20019;-71
2023/07/01 10:07:07;;;;;;;4.47;4.05;;;29.70;99.90;;;;;;5328902;27;20030;-72
2023/07/01 10:09:43;;;;;;;4.82;4.53;;;29.80;99.90;;;;;;5328725;27;20035;-71
2023/07/01 10:12:19;;;;;;;5.13;4.72;;;29.90;99.90;;;;;;5328499;27;20043;-71
2023/07/01 10:14:51;;;;;;;4.97;4.53;;;29.60;95.90;;;;;;5328703;27;20477;-71
2023/07/01 10:17:42;;;;;;;4.63;4.22;;;29.90;99.90;;;;;;5328649;27;20087;-71
2023/07/01 10:20:26;;;;;;;6.57;4.85;;;30.00;97.20;;;;;;5328327;27;20084;-71
2023/07/01 10:22:58;;;;;;;4.57;4.18;;;29.40;90.80;;;;;;5307033;27;20090;-71
2023/07/01 10:25:38;;;;;;;4.55;4.15;;;29.70;99.30;;;;;;5307095;27;20027;-70
2023/07/01 10:28:08;;;;;;;;;;;30.00;99.90;;;;;;5307403;27;20011;-71
2023/07/01 10:30:44;;;;;;;4.78;4.40;;;30.00;97.10;;;;;;5306567;27;20277;-72
2023/07/01 10:33:27;;;;;;;5.93;4.10;;;30.00;97.40;;;;;;5306768;27;20533;-70
2023/07/01 10:36:09;;;;;;;4.50;4.10;;;30.10;99.90;;;;;;5306775;27;20378;-71
2023/07/01 10:38:40;;;;;;;8.00;4.40;;;30.10;95.30;;;;;;5306737;27;20023;-70
2023/07/01 10:41:11;;;;;;;5.30;4.80;;;30.20;97.50;;;;;;5305292;28;20038;-70
2023/07/01 10:43:42;;;;;;;5.03;4.53;;;30.30;94.30;;;;;;5306651;27;20027;-71
2023/07/01 10:46:23;;;;;;;6.75;4.60;;;30.30;94.20;;;;;;5306547;27;20035;-70
2023/07/01 10:49:03;;;;;;;4.85;3.88;;;30.30;96.60;;;;;;5305297;28;20458;-71
2023/07/01 10:51:46;;;;;;;4.90;4.50;;;30.30;91.00;;;;;;5306324;27;20035;-71
2023/07/01 10:54:39;;;;;;;5.65;3.92;;;30.30;86.10;;;;;;5306448;27;20024;-70
2023/07/01 10:57:17;;;;;;;3.88;3.58;;;30.30;94.80;;;;;;5306402;27;20026;-70
2023/07/01 10:59:47;;;;;;;4.55;4.18;;;30.30;90.60;;;;;;5306030;27;20031;-71
2023/07/01 11:02:39;;;;;;;5.00;4.70;;;29.90;88.70;;;;;;5293793;28;20043;-71
2023/07/01 11:05:10;;;;;;;4.78;4.38;;;30.00;90.80;;;;;;5290790;28;20493;-71
2023/07/01 11:07:43;;;;;;;6.20;5.80;;;30.10;88.80;;;;;;5292300;28;20024;-71
2023/07/01 11:10:14;;;;;;;5.68;5.10;;;29.90;95.00;;;;;;5291994;28;20035;-71
2023/07/01 11:12:45;;;;;;;4.50;4.20;;;30.40;90.80;;;;;;5291823;28;20030;-71
2023/07/01 11:15:17;;;;;;;6.55;4.10;;;30.20;89.10;;;;;;5291932;28;20035;-71
2023/07/01 11:17:53;;;;;;;5.32;4.93;;;30.50;92.40;;;;;;5291859;28;20408;-71
2023/07/01 11:20:23;;;;;;;6.60;5.97;;;30.50;89.10;;;;;;5290352;28;20763;-70
2023/07/01 11:22:54;;;;;;;5.35;4.70;;;30.00;86.80;;;;;;5291843;28;20070;-70
2023/07/01 11:25:25;;;;;;;5.95;4.45;;;30.10;87.70;;;;;;5291781;28;20323;-71
2023/07/01 11:27:56;;;;;;;4.95;4.65;;;30.10;86.60;;;;;;5291552;28;20470;-68
2023/07/01 11:30:31;;;;;;;5.18;4.60;;;30.40;87.10;;;;;;5291390;28;20100;-70
2023/07/01 11:33:17;;;;;;;5.82;4.28;;;30.50;90.80;;;;;;5291494;28;20369;-71
2023/07/01 11:35:51;;;;;;;4.35;4.05;;;30.50;89.80;;;;;;5291699;28;20031;-71
2023/07/01 11:38:24;;;;;;;5.10;4.35;;;30.60;87.10;;;;;;5291555;28;20034;-71
2023/07/01 11:40:55;;;;;;;5.32;4.70;;;30.70;91.20;;;;;;5291361;28;20110;-71
2023/07/01 11:43:27;;;;;;;3.95;3.63;;;30.70;87.00;;;;;;5291274;28;20073;-71
2023/07/01 11:45:58;;;;;;;9.50;4.32;;;30.60;80.60;;;;;;5291300;28;20027;-71
2023/07/01 11:48:30;;;;;;;3.90;3.60;;;30.00;83.10;;;;;;5291351;28;20384;-71
2023/07/01 11:51:02;;;;;;;4.38;3.63;;;30.30;85.00;;;;;;5290971;28;20036;-71
2023/07/01 11:53:37;;;;;;;3.92;3.53;;;30.50;82.00;;;;;;5291088;27;20027;-71
2023/07/01 11:56:16;;;;;;;4.45;3.90;;;30.70;87.00;;;;;;5290918;28;20042;-70
2023/07/01 11:58:48;;;;;;;3.88;3.38;;;30.70;84.00;;;;;;5291087;28;20020;-71
2023/07/01 12:01:26;;;;;;;3.92;3.53;;;30.70;85.70;;;;;;5290644;28;20047;-68
2023/07/01 12:03:57;;;;;;;4.63;3.50;;;30.60;83.80;;;;;;5290924;28;20066;-68
2023/07/01 12:06:28;;;;;;;5.13;4.32;;;30.50;83.60;;;;;;5290814;28;20059;-71
2023/07/01 12:09:05;;;;;;;4.50;4.20;;;30.50;82.90;;;;;;5290967;28;20415;-71
2023/07/01 12:11:48;;;;;;;6.78;5.07;;;30.70;80.90;;;;;;5290544;28;20034;-71
2023/07/01 12:14:21;;;;;;;4.38;4.07;;;30.50;81.10;;;;;;5289606;28;20059;-71
2023/07/01 12:16:53;;;;;;;7.78;4.45;;;30.50;86.10;;;;;;5290559;28;20366;-71
2023/07/01 12:19:25;;;;;;;4.72;4.43;;;30.60;82.90;;;;;;5290530;28;20031;-71
2023/07/01 12:21:57;;;;;;;4.78;4.13;;;30.70;85.20;;;;;;5290428;28;20362;-71
2023/07/01 12:24:30;;;;;;;10.00;6.03;;;30.90;83.50;;;;;;5290477;28;20118;-71
2023/07/01 12:27:03;;;;;;;7.28;6.78;;;30.70;82.20;;;;;;5290609;28;20020;-70
2023/07/01 12:29:34;;;;;;;8.93;8.23;;;30.70;81.10;;;;;;5290476;28;20075;-70
2023/07/01 12:32:05;;;;;;;7.00;6.60;;;30.50;81.10;;;;;;5290474;28;20048;-71
2023/07/01 12:34:36;;;;;;;7.82;7.22;;;29.30;81.10;;;;;;5290247;28;20031;-71
2023/07/01 12:37:07;;;;;;;7.78;6.82;;;30.10;84.40;;;;;;5290103;28;20100;-71
2023/07/01 12:39:38;;;;;;;5.47;5.10;;;29.90;78.90;;;;;;5290259;28;20024;-71
2023/07/01 12:42:09;;;;;;;5.35;4.95;;;29.40;78.70;;;;;;5290173;28;20072;-71
2023/07/01 12:44:43;;;;;;;5.10;4.80;;;29.60;79.10;;;;;;5288803;28;20562;-72
2023/07/01 12:47:13;;;;;;;6.30;5.55;;;30.00;80.00;;;;;;5290024;28;20023;-71
2023/07/01 12:49:44;;;;;;;11.38;7.32;;;30.10;80.70;;;;;;5289856;28;20496;-71
2023/07/01 12:52:15;;;;;;;5.88;5.57;;;30.50;80.50;;;;;;5289650;28;20024;-71
2023/07/01 12:54:46;;;;;;;4.45;3.97;;;30.10;77.90;;;;;;5289952;28;20027;-71
2023/07/01 12:57:17;;;;;;;4.68;4.28;;;30.00;79.20;;;;;;5289798;28;20078;-70
2023/07/01 12:59:48;;;;;;;4.60;4.25;;;30.20;77.40;;;;;;5289322;28;20047;-71
2023/07/01 13:02:18;;;;;;;4.88;4.57;;;30.50;76.00;;;;;;5289800;28;20052;-71
2023/07/01 13:05:00;;;;;;;5.65;5.30;;;30.30;77.30;;;;;;5289567;28;20028;-71
2023/07/01 13:07:32;;;;;;;4.72;4.43;;;30.50;77.30;;;;;;5289622;28;20043;-70
2023/07/01 13:10:04;;;;;;;3.70;3.40;;;30.00;75.00;;;;;;5289416;28;20096;-71
2023/07/01 13:12:36;;;;;;;4.82;4.55;;;30.30;77.10;;;;;;5289379;28;20454;-71
2023/07/01 13:15:24;;;;;;;6.00;5.50;;;30.50;77.00;;;;;;5289469;28;20063;-71
2023/07/01 13:17:55;;;;;;;5.07;4.77;;;30.60;77.60;;;;;;5289383;28;20023;-71
2023/07/01 13:20:28;;;;;;;4.90;4.63;;;30.20;74.40;;;;;;5289177;28;20284;-71
2023/07/01 13:23:00;;;;;;;4.25;3.88;;;30.40;75.50;;;;;;5289342;28;20019;-71